createdAt,value
2022-08-18T00:01:36.168Z,98271.91
2022-08-18T00:04:12.459Z,98263.84
2022-08-18T00:07:03.843Z,98261.29
2022-08-18T00:09:37.424Z,98260.48
2022-08-18T00:12:15.317Z,98260.72
2022-08-18T00:14:50.790Z,98259.02
2022-08-18T00:17:25.060Z,98257.70
2022-08-18T00:19:58.252Z,98260.34
2022-08-18T00:22:31.392Z,98263.31
2022-08-18T00:25:04.127Z,98265.80
2022-08-18T00:27:37.952Z,98268.55
2022-08-18T00:30:14.111Z,98273.64
2022-08-18T00:32:51.559Z,98273.14
2022-08-18T00:35:28.863Z,98271.09
2022-08-18T00:38:04.376Z,98270.15
2022-08-18T00:40:45.339Z,98264.60
2022-08-18T00:43:21.082Z,98261.52
2022-08-18T00:45:53.949Z,98262.25
2022-08-18T00:48:26.412Z,98263.85
2022-08-18T00:51:03.826Z,98258.04
2022-08-18T00:53:41.335Z,98254.52
2022-08-18T00:56:18.300Z,98254.92
2022-08-18T00:58:59.117Z,98256.42
2022-08-18T01:01:34.401Z,98254.67
2022-08-18T01:04:11.500Z,98252.90
2022-08-18T01:06:47.014Z,98253.15
2022-08-18T01:09:20.513Z,98252.88
2022-08-18T01:11:54.160Z,98254.55
2022-08-18T01:14:27.790Z,98254.94
2022-08-18T01:17:18.323Z,98253.60
2022-08-18T01:20:10.120Z,98252.14
2022-08-18T01:22:54.412Z,98252.57
2022-08-18T01:25:46.918Z,98257.58
2022-08-18T01:28:21.700Z,98260.69
2022-08-18T01:30:58.406Z,98265.05
2022-08-18T01:33:34.166Z,98260.77
2022-08-18T01:36:13.450Z,98261.95
2022-08-18T01:38:47.846Z,98253.75
2022-08-18T01:41:29.753Z,98250.23
2022-08-18T01:44:05.270Z,98248.66
2022-08-18T01:46:38.976Z,98241.25
2022-08-18T01:49:13.477Z,98235.23
2022-08-18T01:51:46.521Z,98234.32
2022-08-18T01:54:18.579Z,98234.35
2022-08-18T01:56:53.547Z,98234.52
2022-08-18T01:59:26.019Z,98227.95
2022-08-18T02:02:01.248Z,98229.40
2022-08-18T02:04:37.314Z,98227.38
2022-08-18T02:07:12.317Z,98223.13
2022-08-18T02:09:45.295Z,98218.21
2022-08-18T02:12:18.700Z,98217.39
2022-08-18T02:14:53.163Z,98213.23
2022-08-18T02:17:25.203Z,98212.41
2022-08-18T02:19:58.743Z,98209.52
2022-08-18T02:22:33.213Z,98212.86
2022-08-18T02:25:09.301Z,98211.23
2022-08-18T02:27:41.542Z,98212.45
2022-08-18T02:30:18.083Z,98216.95
2022-08-18T02:32:50.302Z,98219.78
2022-08-18T02:35:23.697Z,98215.77
2022-08-18T02:37:56.342Z,98221.80
2022-08-18T02:40:29.937Z,98227.96
2022-08-18T02:43:09.402Z,98233.52
2022-08-18T02:45:41.946Z,98230.38
2022-08-18T02:48:14.461Z,98226.86
2022-08-18T02:50:47.928Z,98228.83
2022-08-18T02:53:23.495Z,98228.29
2022-08-18T02:55:55.903Z,98229.23
2022-08-18T02:58:33.222Z,98231.23
2022-08-18T03:01:07.294Z,98235.57
2022-08-18T03:03:39.380Z,98238.27
2022-08-18T03:06:12.348Z,98242.62
2022-08-18T03:08:49.434Z,98245.73
2022-08-18T03:11:23.682Z,98251.16
2022-08-18T03:13:56.610Z,98258.51
2022-08-18T03:16:33.201Z,98262.82
2022-08-18T03:19:05.498Z,98270.15
2022-08-18T03:21:38.489Z,98267.02
2022-08-18T03:24:14.967Z,98262.44
2022-08-18T03:26:51.331Z,98265.84
2022-08-18T03:29:27.955Z,98271.95
2022-08-18T03:32:06.785Z,98271.67
2022-08-18T03:34:40.328Z,98267.81
2022-08-18T03:37:12.278Z,98267.89
2022-08-18T03:39:45.624Z,98269.71
2022-08-18T03:42:21.064Z,98264.05
2022-08-18T03:44:53.956Z,98261.95
2022-08-18T03:47:29.498Z,98258.52
2022-08-18T03:50:03.109Z,98261.58
2022-08-18T03:52:41.612Z,98266.70
2022-08-18T03:55:15.216Z,98266.34
2022-08-18T03:57:48.224Z,98271.27
2022-08-18T04:00:21.953Z,98271.75
2022-08-18T04:02:54.462Z,98272.45
2022-08-18T04:05:27.063Z,98270.34
2022-08-18T04:07:59.749Z,98269.44
2022-08-18T04:10:32.348Z,98266.94
2022-08-18T04:13:06.545Z,98269.04
2022-08-18T04:15:39.852Z,98269.13
2022-08-18T04:18:12.940Z,98273.11
2022-08-18T04:20:59.898Z,98272.73
2022-08-18T04:23:43.378Z,98274.21
2022-08-18T04:26:19.606Z,98273.52
2022-08-18T04:28:51.683Z,98268.52
2022-08-18T04:31:26.515Z,98274.12
2022-08-18T04:34:00.051Z,98275.08
2022-08-18T04:36:35.711Z,98274.41
2022-08-18T04:39:10.087Z,98269.86
2022-08-18T04:41:44.485Z,98267.91
2022-08-18T04:44:18.398Z,98274.64
2022-08-18T04:46:53.598Z,98284.17
2022-08-18T04:49:27.398Z,98281.83
2022-08-18T04:52:27.018Z,98281.95
2022-08-18T04:55:12.559Z,98280.75
2022-08-18T04:57:45.709Z,98278.69
2022-08-18T05:00:19.607Z,98275.56
2022-08-18T05:02:54.630Z,98268.45
2022-08-18T05:05:28.720Z,98268.83
2022-08-18T05:08:02.636Z,98271.33
2022-08-18T05:10:35.405Z,98274.02
2022-08-18T05:13:07.905Z,98271.94
2022-08-18T05:16:07.032Z,98268.58
2022-08-18T05:18:41.718Z,98265.41
2022-08-18T05:21:16.735Z,98268.84
2022-08-18T05:23:51.234Z,98272.59
2022-08-18T05:26:24.273Z,98276.89
2022-08-18T05:29:18.186Z,98281.41
2022-08-18T05:31:51.728Z,98282.05
2022-08-18T05:34:24.774Z,98279.35
2022-08-18T05:37:09.058Z,98284.90
2022-08-18T05:39:47.345Z,98284.28
2022-08-18T05:42:22.944Z,98281.47
2022-08-18T05:44:57.175Z,98274.85
2022-08-18T05:47:31.999Z,98276.52
2022-08-18T05:50:10.556Z,98277.56
2022-08-18T05:52:53.631Z,98271.24
2022-08-18T05:55:48.930Z,98275.72
2022-08-18T05:58:23.775Z,98272.21
2022-08-18T06:01:10.390Z,98275.99
2022-08-18T06:03:47.934Z,98278.43
2022-08-18T06:06:23.338Z,98280.08
2022-08-18T06:09:08.687Z,98280.81
2022-08-18T06:11:41.340Z,98282.76
2022-08-18T06:14:15.417Z,98289.94
2022-08-18T06:16:57.246Z,98284.83
2022-08-18T06:19:37.145Z,98285.29
2022-08-18T06:22:20.273Z,98285.47
2022-08-18T06:24:55.541Z,98290.20
2022-08-18T06:27:35.645Z,98290.15
2022-08-18T06:30:11.894Z,98291.05
2022-08-18T06:32:58.007Z,98290.52
2022-08-18T06:35:36.511Z,98288.65
2022-08-18T06:38:38.819Z,98295.92
2022-08-18T06:41:41.465Z,98298.98
2022-08-18T06:44:18.065Z,98294.48
2022-08-18T06:46:54.449Z,98294.13
2022-08-18T06:49:36.952Z,98291.47
2022-08-18T06:52:29.330Z,98293.65
2022-08-18T06:55:05.578Z,98295.70
2022-08-18T06:57:40.977Z,98293.63
2022-08-18T07:00:26.325Z,98294.98
2022-08-18T07:03:14.701Z,98291.80
2022-08-18T07:06:02.431Z,98293.54
2022-08-18T07:08:37.482Z,98293.44
2022-08-18T07:11:22.052Z,98291.11
2022-08-18T07:14:15.042Z,98290.53
2022-08-18T07:18:03.123Z,98294.74
2022-08-18T07:21:01.281Z,98291.65
2022-08-18T07:23:40.800Z,98291.03
2022-08-18T07:26:18.067Z,98287.57
2022-08-18T07:28:51.976Z,98284.57
2022-08-18T07:31:40.180Z,98286.10
2022-08-18T07:34:16.762Z,98284.33
2022-08-18T07:36:55.138Z,98281.37
2022-08-18T07:39:32.810Z,98278.23
2022-08-18T07:42:14.489Z,98276.95
2022-08-18T07:45:10.805Z,98276.77
2022-08-18T07:48:34.956Z,98265.40
2022-08-18T07:51:18.627Z,98255.48
2022-08-18T07:54:44.998Z,98258.25
2022-08-18T07:57:16.476Z,98263.92
2022-08-18T08:00:10.482Z,98262.61
2022-08-18T08:06:40.564Z,98270.61
2022-08-18T08:09:41.189Z,98275.90
2022-08-18T08:12:44.602Z,98280.40
2022-08-18T08:15:58.290Z,98278.52
2022-08-18T08:19:13.790Z,98282.58
2022-08-18T08:22:33.881Z,98277.98
2022-08-18T08:25:46.467Z,98280.94
2022-08-18T08:28:37.117Z,98289.89
2022-08-18T08:32:00.170Z,98294.17
2022-08-18T08:41:05.655Z,98304.32
2022-08-18T08:43:44.223Z,98310.73
2022-08-18T08:49:55.078Z,98307.61
2022-08-18T08:53:27.156Z,98307.52
2022-08-18T09:02:49.650Z,98291.43
2022-08-18T09:05:25.706Z,98293.39
2022-08-18T09:11:52.358Z,98290.88
2022-08-18T09:18:44.206Z,98302.43
2022-08-18T09:21:50.235Z,98302.09
2022-08-18T09:28:24.124Z,98294.64
2022-08-18T09:31:20.646Z,98291.52
2022-08-18T09:34:22.076Z,98291.15
2022-08-18T09:37:14.210Z,98293.88
2022-08-18T09:44:21.155Z,98290.02
2022-08-18T09:47:33.571Z,98283.80
2022-08-18T09:50:39.236Z,98286.36
2022-08-18T10:07:43.980Z,98284.45
2022-08-18T10:11:01.086Z,98275.58
2022-08-18T10:14:45.110Z,98275.66
2022-08-18T10:17:58.037Z,98272.19
2022-08-18T10:20:46.567Z,98271.89
2022-08-18T10:24:08.052Z,98269.63
2022-08-18T10:27:30.564Z,98268.02
2022-08-18T10:30:57.373Z,98263.05
2022-08-18T10:44:27.672Z,98237.55
2022-08-18T10:47:35.036Z,98231.92
2022-08-18T10:50:38.012Z,98231.59
2022-08-18T10:54:18.361Z,98229.95
2022-08-18T10:57:24.510Z,98224.89
2022-08-18T11:00:10.019Z,98216.33
2022-08-18T11:07:10.584Z,98216.89
2022-08-18T11:10:04.542Z,98218.54
2022-08-18T11:16:53.904Z,98209.91
2022-08-18T11:19:32.739Z,98212.15
2022-08-18T11:25:57.400Z,98200.18
2022-08-18T11:28:40.792Z,98194.27
2022-08-18T11:31:17.708Z,98187.45
2022-08-18T11:33:58.032Z,98193.51
2022-08-18T11:41:08.886Z,98184.00
2022-08-18T11:44:06.737Z,98178.41
2022-08-18T11:46:46.408Z,98177.52
2022-08-18T11:49:37.665Z,98173.01
2022-08-18T11:52:29.495Z,98167.40
2022-08-18T11:55:53.532Z,98156.18
2022-08-18T11:58:51.689Z,98144.65
2022-08-18T12:01:56.105Z,98146.45
2022-08-18T12:07:57.830Z,98142.66
2022-08-18T12:10:31.970Z,98143.83
2022-08-18T12:13:13.118Z,98143.79
2022-08-18T12:15:47.488Z,98137.02
2022-08-18T12:18:28.944Z,98128.95
2022-08-18T12:21:03.279Z,98129.65
2022-08-18T12:23:39.124Z,98132.36
2022-08-18T12:26:38.132Z,98136.04
2022-08-18T12:29:12.781Z,98128.05
2022-08-18T12:31:52.775Z,98121.72
2022-08-18T12:34:27.315Z,98122.85
2022-08-18T12:37:02.629Z,98125.09
2022-08-18T12:39:44.525Z,98124.41
2022-08-18T12:42:19.334Z,98126.37
2022-08-18T12:44:53.243Z,98120.33
2022-08-18T12:47:31.193Z,98118.45
2022-08-18T12:50:04.496Z,98114.77
2022-08-18T12:52:37.951Z,98109.42
2022-08-18T12:58:08.223Z,98112.00
2022-08-18T13:00:43.429Z,98111.98
2022-08-18T13:03:16.957Z,98113.73
2022-08-18T13:05:50.820Z,98114.64
2022-08-18T13:08:30.615Z,98114.71
2022-08-18T13:11:15.374Z,98117.80
2022-08-18T13:13:56.173Z,98117.59
2022-08-18T13:16:38.634Z,98115.88
2022-08-18T13:19:13.293Z,98122.09
2022-08-18T13:21:46.142Z,98127.11
2022-08-18T13:24:21.979Z,98131.00
2022-08-18T13:26:57.109Z,98137.77
2022-08-18T13:29:30.145Z,98138.41
2022-08-18T13:32:09.456Z,98140.98
2022-08-18T13:34:42.639Z,98145.50
2022-08-18T13:37:17.568Z,98147.49
2022-08-18T13:39:53.365Z,98154.98
2022-08-18T13:42:31.260Z,98157.98
2022-08-18T13:45:25.517Z,98151.48
2022-08-18T13:47:58.609Z,98143.80
2022-08-18T13:50:30.735Z,98142.58
2022-08-18T13:53:05.619Z,98140.21
2022-08-18T13:55:39.274Z,98139.65
2022-08-18T13:58:20.452Z,98140.73
2022-08-18T14:00:54.865Z,98136.94
2022-08-18T14:03:42.723Z,98140.67
2022-08-18T14:06:23.627Z,98139.35
2022-08-18T14:08:57.600Z,98135.51
2022-08-18T14:11:33.307Z,98131.42
2022-08-18T14:14:08.319Z,98136.71
2022-08-18T14:16:42.411Z,98139.17
2022-08-18T14:19:33.111Z,98136.61
2022-08-18T14:22:26.432Z,98138.98
2022-08-18T14:25:17.464Z,98139.45
2022-08-18T14:27:57.236Z,98143.64
2022-08-18T14:30:29.846Z,98136.48
2022-08-18T14:33:02.697Z,98137.27
2022-08-18T14:36:06.568Z,98134.80
2022-08-18T14:38:30.298Z,98122.84
2022-08-18T14:41:07.021Z,98120.09
2022-08-18T14:44:00.422Z,98121.07
2022-08-18T14:46:42.908Z,98113.92
2022-08-18T14:50:00.607Z,98110.12
2022-08-18T14:56:28.550Z,98099.88
2022-08-18T14:59:29.502Z,98099.41
2022-08-18T15:02:37.993Z,98105.13
2022-08-18T15:05:19.764Z,98101.08
2022-08-18T15:08:24.460Z,98097.59
2022-08-18T15:11:25.382Z,98102.61
2022-08-18T15:21:34.941Z,98113.70
2022-08-18T15:24:37.650Z,98114.51
2022-08-18T15:27:19.429Z,98114.86
2022-08-18T15:29:57.907Z,98112.41
2022-08-18T15:35:57.127Z,98105.79
2022-08-18T15:38:30.299Z,98104.30
2022-08-18T15:44:27.570Z,98107.25
2022-08-18T15:47:03.957Z,98103.48
2022-08-18T15:50:29.748Z,98113.90
2022-08-18T15:53:09.199Z,98117.48
2022-08-18T15:56:15.055Z,98121.55
2022-08-18T15:58:52.336Z,98117.98
2022-08-18T16:01:33.431Z,98113.70
2022-08-18T16:04:11.663Z,98110.98
2022-08-18T16:07:17.894Z,98111.69
2022-08-18T16:10:53.243Z,98110.15
2022-08-18T16:13:36.802Z,98113.11
2022-08-18T16:17:01.791Z,98112.03
2022-08-18T16:19:43.227Z,98109.28
2022-08-18T16:22:18.939Z,98106.04
2022-08-18T16:29:33.491Z,98095.86
2022-08-18T16:32:58.451Z,98102.45
2022-08-18T16:35:35.604Z,98106.90
2022-08-18T16:38:13.394Z,98107.16
2022-08-18T16:40:52.349Z,98100.81
2022-08-18T16:43:35.455Z,98106.21
2022-08-18T16:49:34.696Z,98116.12
2022-08-18T16:52:14.445Z,98116.89
2022-08-18T16:54:58.042Z,98116.91
2022-08-18T17:01:04.899Z,98099.56
2022-08-18T17:04:03.364Z,98088.41
2022-08-18T17:06:59.811Z,98091.25
2022-08-18T17:09:35.221Z,98090.48
2022-08-18T17:12:14.023Z,98086.23
2022-08-18T17:14:51.969Z,98084.05
2022-08-18T17:17:35.566Z,98086.58
2022-08-18T17:20:22.014Z,98091.02
2022-08-18T17:23:20.444Z,98088.79
2022-08-18T17:25:54.979Z,98091.98
2022-08-18T17:28:31.000Z,98097.13
2022-08-18T17:31:16.379Z,98102.58
2022-08-18T17:40:51.910Z,98122.41
2022-08-18T17:43:30.024Z,98124.31
2022-08-18T17:46:10.440Z,98120.63
2022-08-18T17:48:54.901Z,98122.23
2022-08-18T17:51:55.190Z,98133.39
2022-08-18T17:58:31.171Z,98147.91
2022-08-18T18:01:28.968Z,98148.60
2022-08-18T18:04:25.944Z,98154.59
2022-08-18T18:07:21.867Z,98155.65
2022-08-18T18:11:04.847Z,98162.56
2022-08-18T18:13:43.067Z,98163.70
2022-08-18T18:16:41.631Z,98168.02
2022-08-18T18:19:15.170Z,98170.29
2022-08-18T18:22:17.686Z,98169.52
2022-08-18T18:24:54.982Z,98174.70
2022-08-18T18:30:39.324Z,98165.85
2022-08-18T18:33:25.218Z,98165.38
2022-08-18T18:36:25.278Z,98160.70
2022-08-18T18:39:56.359Z,98162.88
2022-08-18T18:43:03.242Z,98162.87
2022-08-18T18:46:02.904Z,98163.84
2022-08-18T18:48:52.465Z,98161.20
2022-08-18T18:58:48.669Z,98149.91
2022-08-18T19:01:58.548Z,98147.37
2022-08-18T19:05:04.714Z,98137.70
2022-08-18T19:08:00.764Z,98134.77
2022-08-18T19:14:18.169Z,98120.06
2022-08-18T19:16:58.672Z,98120.65
2022-08-18T19:20:04.235Z,98115.17
2022-08-18T19:22:47.637Z,98107.94
2022-08-18T19:25:28.986Z,98096.88
2022-08-18T19:28:09.149Z,98085.46
2022-08-18T19:30:53.562Z,98086.52
2022-08-18T19:33:37.133Z,98094.41
2022-08-18T19:36:42.043Z,98100.36
2022-08-18T19:39:44.947Z,98099.84
2022-08-18T19:42:51.837Z,98093.27
2022-08-18T19:45:55.561Z,98084.65
2022-08-18T19:48:46.130Z,98090.55
2022-08-18T19:51:34.218Z,98098.61
2022-08-18T19:54:41.113Z,98091.16
2022-08-18T19:57:29.814Z,98084.59
2022-08-18T20:00:26.291Z,98086.09
2022-08-18T20:03:24.053Z,98073.86
2022-08-18T20:06:47.773Z,98077.73
2022-08-18T20:10:06.805Z,98084.33
2022-08-18T20:13:03.097Z,98081.49
2022-08-18T20:16:04.227Z,98078.19
2022-08-18T20:18:44.230Z,98079.35
2022-08-18T20:25:47.356Z,98073.01
2022-08-18T20:28:39.740Z,98070.20
2022-08-18T20:31:19.160Z,98068.27
2022-08-18T20:34:37.598Z,98068.73
2022-08-18T20:37:13.368Z,98063.98
2022-08-18T20:40:41.084Z,98058.88
2022-08-18T20:43:30.509Z,98061.61
2022-08-18T20:46:25.169Z,98063.91
2022-08-18T20:49:47.670Z,98063.80
2022-08-18T20:56:49.829Z,98068.99
2022-08-18T21:02:59.676Z,98068.50
2022-08-18T21:05:42.284Z,98063.02
2022-08-18T21:08:38.133Z,98055.60
2022-08-18T21:11:32.345Z,98053.66
2022-08-18T21:14:34.275Z,98052.14
2022-08-18T21:17:31.892Z,98052.91
2022-08-18T21:20:51.844Z,98055.42
2022-08-18T21:23:33.961Z,98049.19
2022-08-18T21:26:14.880Z,98044.54
2022-08-18T21:29:47.240Z,98049.52
2022-08-18T21:33:05.650Z,98046.81
2022-08-18T21:40:30.145Z,98070.09
2022-08-18T21:43:13.888Z,98069.73
2022-08-18T21:46:00.988Z,98072.65
2022-08-18T21:48:41.584Z,98067.75
2022-08-18T21:51:45.935Z,98065.14
2022-08-18T21:58:17.010Z,98058.41
2022-08-18T22:01:19.080Z,98062.51
2022-08-18T22:04:03.556Z,98065.86
2022-08-18T22:07:03.321Z,98065.53
2022-08-18T22:10:19.595Z,98068.35
2022-08-18T22:13:24.024Z,98065.35
2022-08-18T22:15:59.452Z,98058.95
2022-08-18T22:18:45.558Z,98056.09
2022-08-18T22:25:05.909Z,98058.46
2022-08-18T22:28:11.761Z,98060.58
2022-08-18T22:30:51.914Z,98062.27
2022-08-18T22:33:30.089Z,98063.75
2022-08-18T22:36:09.272Z,98062.30
2022-08-18T22:38:47.776Z,98071.81
2022-08-18T22:41:28.067Z,98077.98
2022-08-18T22:50:41.397Z,98077.36
2022-08-18T22:53:49.930Z,98073.08
2022-08-18T22:56:34.324Z,98068.59
2022-08-18T22:59:33.087Z,98070.86
2022-08-18T23:02:55.405Z,98071.30
2022-08-18T23:05:58.411Z,98072.70
2022-08-18T23:09:05.766Z,98074.22
2022-08-18T23:11:42.890Z,98073.79
2022-08-18T23:17:29.613Z,98074.20
2022-08-18T23:20:17.636Z,98073.06
2022-08-18T23:23:21.473Z,98076.70
2022-08-18T23:25:59.523Z,98078.75
2022-08-18T23:28:55.969Z,98080.96
2022-08-18T23:32:29.596Z,98083.15
2022-08-18T23:35:56.843Z,98083.00
2022-08-18T23:38:57.806Z,98076.07
2022-08-18T23:45:33.296Z,98068.98
2022-08-18T23:48:31.677Z,98065.10
2022-08-18T23:51:06.835Z,98063.55
2022-08-18T23:54:27.121Z,98066.28
2022-08-18T23:57:29.383Z,98064.73
